createdAt,value
2022-11-18T00:01:17.356Z,97962.25
2022-11-18T00:03:45.256Z,97965.72
2022-11-18T00:06:15.830Z,97969.44
2022-11-18T00:08:42.870Z,97963.31
2022-11-18T00:11:41.895Z,97965.97
2022-11-18T00:14:35.336Z,97972.91
2022-11-18T00:17:05.512Z,97970.25
2022-11-18T00:19:36.121Z,97960.88
2022-11-18T00:22:08.067Z,97957.16
2022-11-18T00:24:35.166Z,97956.34
2022-11-18T00:27:02.080Z,97955.56
2022-11-18T00:29:30.821Z,97960.03
2022-11-18T00:31:58.480Z,97960.03
2022-11-18T00:34:26.427Z,97967.22
2022-11-18T00:36:53.520Z,97966.41
2022-11-18T00:39:21.385Z,97966.19
2022-11-18T00:42:08.220Z,97967.22
2022-11-18T00:44:35.704Z,97964.53
2022-11-18T00:47:05.484Z,97967.00
2022-11-18T00:49:32.457Z,97967.81
2022-11-18T00:51:59.485Z,97967.81
2022-11-18T00:54:26.472Z,97968.63
2022-11-18T00:56:53.420Z,97968.63
2022-11-18T00:59:20.666Z,97968.38
2022-11-18T01:01:49.106Z,97978.00
2022-11-18T01:04:16.848Z,97968.16
2022-11-18T01:06:43.801Z,97969.78
2022-11-18T01:09:10.803Z,97968.97
2022-11-18T01:11:56.614Z,97974.06
2022-11-18T01:14:26.790Z,97975.69
2022-11-18T01:16:55.716Z,97977.31
2022-11-18T01:19:24.091Z,97977.06
2022-11-18T01:21:51.339Z,97984.00
2022-11-18T01:24:18.302Z,97989.34
2022-11-18T01:26:45.255Z,97989.09
2022-11-18T01:29:12.301Z,97992.56
2022-11-18T01:31:55.566Z,97997.91
2022-11-18T01:34:29.341Z,97996.06
2022-11-18T01:36:57.904Z,98000.56
2022-11-18T01:39:25.389Z,97992.56
2022-11-18T01:41:52.400Z,97999.53
2022-11-18T01:44:59.926Z,98000.34
2022-11-18T01:47:37.204Z,98001.16
2022-11-18T01:50:06.578Z,97997.91
2022-11-18T01:52:35.335Z,98009.16
2022-11-18T01:55:14.063Z,98014.22
2022-11-18T01:57:42.189Z,98005.44
2022-11-18T02:00:10.215Z,98009.16
2022-11-18T02:02:38.230Z,98013.44
2022-11-18T02:05:08.805Z,98009.97
2022-11-18T02:07:43.093Z,98006.47
2022-11-18T02:10:21.295Z,98013.44
2022-11-18T02:12:50.194Z,98017.13
2022-11-18T02:15:21.623Z,98019.78
2022-11-18T02:18:07.266Z,98023.50
2022-11-18T02:20:46.616Z,98025.13
2022-11-18T02:23:44.519Z,98029.84
2022-11-18T02:26:47.129Z,98028.81
2022-11-18T02:29:32.764Z,98028.22
2022-11-18T02:32:04.390Z,98033.53
2022-11-18T02:38:59.404Z,98038.88
2022-11-18T02:41:31.787Z,98039.69
2022-11-18T02:44:11.778Z,98040.47
2022-11-18T02:46:40.216Z,98042.34
2022-11-18T02:49:16.234Z,98046.66
2022-11-18T02:51:45.360Z,98043.16
2022-11-18T02:54:13.733Z,98052.97
2022-11-18T02:56:42.164Z,98043.16
2022-11-18T02:59:09.091Z,98052.16
2022-11-18T03:01:36.852Z,98052.16
2022-11-18T03:04:04.304Z,98048.69
2022-11-18T03:06:40.204Z,98053.44
2022-11-18T03:09:28.998Z,98059.59
2022-11-18T03:12:44.765Z,98067.00
2022-11-18T03:15:44.736Z,98068.03
2022-11-18T03:18:28.831Z,98064.75
2022-11-18T03:21:39.900Z,98070.91
2022-11-18T03:24:28.782Z,98067.66
2022-11-18T03:27:19.710Z,98074.03
2022-11-18T03:30:07.702Z,98069.38
2022-11-18T03:32:41.769Z,98072.25
2022-11-18T03:35:19.298Z,98081.53
2022-11-18T03:37:50.405Z,98072.94
2022-11-18T03:40:23.388Z,98083.81
2022-11-18T03:42:56.772Z,98084.84
2022-11-18T03:45:47.129Z,98082.63
2022-11-18T03:48:22.451Z,98087.94
2022-11-18T03:51:00.867Z,98099.44
2022-11-18T03:53:33.009Z,98093.50
2022-11-18T03:56:15.760Z,98106.22
2022-11-18T03:59:13.050Z,98099.28
2022-11-18T04:01:48.225Z,98104.00
2022-11-18T04:04:15.460Z,98102.16
2022-11-18T04:07:12.841Z,98106.66
2022-11-18T04:09:50.262Z,98095.44
2022-11-18T04:12:21.110Z,98104.44
2022-11-18T04:14:52.165Z,98111.38
2022-11-18T04:17:26.285Z,98118.78
2022-11-18T04:19:53.571Z,98114.50
2022-11-18T04:22:20.801Z,98111.03
2022-11-18T04:24:47.748Z,98114.72
2022-11-18T04:27:14.791Z,98121.06
2022-11-18T04:29:41.758Z,98126.63
2022-11-18T04:32:08.817Z,98134.59
2022-11-18T04:34:35.808Z,98130.31
2022-11-18T04:37:02.780Z,98134.84
2022-11-18T04:39:29.743Z,98134.03
2022-11-18T04:41:56.734Z,98131.34
2022-11-18T04:44:32.575Z,98146.72
2022-11-18T04:47:03.642Z,98140.56
2022-11-18T04:49:31.136Z,98137.34
2022-11-18T04:51:58.845Z,98149.25
2022-11-18T04:54:26.798Z,98156.19
2022-11-18T04:56:55.113Z,98158.03
2022-11-18T04:59:26.076Z,98161.72
2022-11-18T05:01:53.665Z,98161.72
2022-11-18T05:04:25.929Z,98170.91
2022-11-18T05:06:53.306Z,98167.44
2022-11-18T05:09:21.105Z,98178.31
2022-11-18T05:12:07.242Z,98180.16
2022-11-18T05:14:34.324Z,98182.00
2022-11-18T05:17:04.147Z,98190.22
2022-11-18T05:19:31.187Z,98190.22
2022-11-18T05:21:58.715Z,98192.06
2022-11-18T05:24:26.021Z,98203.69
2022-11-18T05:26:54.002Z,98209.03
2022-11-18T05:29:21.411Z,98204.75
2022-11-18T05:31:49.072Z,98220.91
2022-11-18T05:34:17.402Z,98220.09
2022-11-18T05:36:44.604Z,98225.84
2022-11-18T05:39:11.720Z,98221.56
2022-11-18T05:41:57.149Z,98225.25
2022-11-18T05:44:24.139Z,98224.09
2022-11-18T05:46:51.082Z,98232.06
2022-11-18T05:49:18.207Z,98237.81
2022-11-18T05:51:45.236Z,98244.97
2022-11-18T05:54:16.711Z,98253.41
2022-11-18T05:56:45.346Z,98246.41
2022-11-18T05:59:12.745Z,98246.06
2022-11-18T06:01:51.214Z,98256.69
2022-11-18T06:04:28.942Z,98248.31
2022-11-18T06:07:07.079Z,98260.22
2022-11-18T06:09:41.292Z,98262.28
2022-11-18T06:12:09.338Z,98271.88
2022-11-18T06:14:43.476Z,98266.97
2022-11-18T06:17:27.039Z,98278.88
2022-11-18T06:19:54.370Z,98285.00
2022-11-18T06:22:21.636Z,98284.59
2022-11-18T06:24:48.665Z,98292.78
2022-11-18T06:27:16.222Z,98295.66
2022-11-18T06:29:43.164Z,98287.91
2022-11-18T06:32:10.988Z,98292.03
2022-11-18T06:34:41.553Z,98306.34
2022-11-18T06:37:21.835Z,98304.31
2022-11-18T06:39:48.799Z,98301.88
2022-11-18T06:42:35.717Z,98313.53
2022-11-18T06:45:04.664Z,98317.44
2022-11-18T06:47:31.892Z,98320.28
2022-11-18T06:49:58.831Z,98322.34
2022-11-18T06:52:25.897Z,98332.41
2022-11-18T06:54:52.848Z,98336.09
2022-11-18T06:57:19.798Z,98349.38
2022-11-18T06:59:46.860Z,98348.56
2022-11-18T07:02:13.938Z,98353.88
2022-11-18T07:04:41.322Z,98352.03
2022-11-18T07:07:08.388Z,98359.19
2022-11-18T07:09:37.230Z,98365.31
2022-11-18T07:12:05.098Z,98373.47
2022-11-18T07:14:32.285Z,98370.00
2022-11-18T07:16:59.274Z,98371.63
2022-11-18T07:19:29.026Z,98367.53
2022-11-18T07:21:59.454Z,98372.88
2022-11-18T07:24:26.398Z,98373.91
2022-11-18T07:26:54.258Z,98375.94
2022-11-18T07:29:21.190Z,98382.28
2022-11-18T07:31:48.206Z,98384.09
2022-11-18T07:34:15.279Z,98399.22
2022-11-18T07:36:42.288Z,98405.34
2022-11-18T07:39:09.414Z,98405.34
2022-11-18T07:41:36.519Z,98411.47
2022-11-18T07:44:05.230Z,98411.47
2022-11-18T07:46:35.551Z,98411.09
2022-11-18T07:49:08.647Z,98411.91
2022-11-18T07:51:39.040Z,98420.91
2022-11-18T07:54:09.357Z,98428.06
2022-11-18T07:56:36.454Z,98429.91
2022-11-18T07:59:04.556Z,98436.03
2022-11-18T08:01:32.000Z,98433.59
2022-11-18T08:04:06.759Z,98432.75
2022-11-18T08:06:35.189Z,98441.34
2022-11-18T08:09:02.842Z,98436.25
2022-11-18T08:11:29.873Z,98447.69
2022-11-18T08:13:56.807Z,98448.50
2022-11-18T08:16:25.927Z,98448.50
2022-11-18T08:18:53.822Z,98448.28
2022-11-18T08:21:22.799Z,98462.59
2022-11-18T08:23:56.249Z,98461.56
2022-11-18T08:26:24.942Z,98458.91
2022-11-18T08:28:53.275Z,98467.69
2022-11-18T08:31:27.015Z,98460.53
2022-11-18T08:34:02.528Z,98460.53
2022-11-18T08:36:32.948Z,98460.53
2022-11-18T08:39:02.840Z,98465.03
2022-11-18T08:41:40.235Z,98465.63
2022-11-18T08:44:10.086Z,98468.91
2022-11-18T08:46:37.078Z,98466.25
2022-11-18T08:49:04.462Z,98476.66
2022-11-18T08:51:31.551Z,98464.00
2022-11-18T08:53:58.565Z,98465.63
2022-11-18T08:56:25.870Z,98464.59
2022-11-18T08:58:53.370Z,98471.56
2022-11-18T09:01:20.691Z,98474.00
2022-11-18T09:03:48.915Z,98469.50
2022-11-18T09:06:25.441Z,98480.13
2022-11-18T09:08:53.663Z,98491.34
2022-11-18T09:11:26.493Z,98482.34
2022-11-18T09:16:44.222Z,98489.09
2022-11-18T09:19:46.293Z,98489.91
2022-11-18T09:21:58.926Z,98481.53
2022-11-18T09:24:25.896Z,98488.47
2022-11-18T09:26:53.846Z,98484.59
2022-11-18T09:29:25.234Z,98489.47
2022-11-18T09:31:54.392Z,98488.25
2022-11-18T09:34:22.768Z,98494.16
2022-11-18T09:36:50.500Z,98500.06
2022-11-18T09:39:17.621Z,98493.31
2022-11-18T09:41:54.897Z,98502.31
2022-11-18T09:44:40.433Z,98504.56
2022-11-18T09:47:09.998Z,98510.47
2022-11-18T09:49:43.615Z,98512.13
2022-11-18T09:52:34.304Z,98522.31
2022-11-18T09:55:13.337Z,98517.59
2022-11-18T09:57:46.670Z,98528.88
2022-11-18T10:00:26.445Z,98527.84
2022-11-18T10:03:12.398Z,98528.22
2022-11-18T10:05:56.951Z,98534.53
2022-11-18T10:08:35.657Z,98529.84
2022-11-18T10:11:23.844Z,98534.72
2022-11-18T10:14:54.797Z,98532.66
2022-11-18T10:17:51.288Z,98542.91
2022-11-18T10:20:30.028Z,98542.69
2022-11-18T10:23:12.539Z,98544.09
2022-11-18T10:25:39.526Z,98541.03
2022-11-18T10:28:22.972Z,98538.75
2022-11-18T10:30:50.459Z,98542.88
2022-11-18T10:33:28.673Z,98542.88
2022-11-18T10:36:19.074Z,98547.75
2022-11-18T10:38:49.888Z,98543.25
2022-11-18T10:41:20.757Z,98544.06
2022-11-18T10:43:52.804Z,98545.69
2022-11-18T10:46:29.681Z,98551.63
2022-11-18T10:49:08.866Z,98550.59
2022-11-18T10:52:10.143Z,98542.81
2022-11-18T10:54:37.854Z,98548.72
2022-11-18T10:57:23.536Z,98548.28
2022-11-18T10:59:57.696Z,98552.38
2022-11-18T11:02:38.576Z,98549.50
2022-11-18T11:05:22.164Z,98553.38
2022-11-18T11:08:36.919Z,98557.66
2022-11-18T11:11:04.444Z,98553.75
2022-11-18T11:13:32.514Z,98550.88
2022-11-18T11:16:05.622Z,98554.16
2022-11-18T11:18:41.544Z,98552.91
2022-11-18T11:21:27.843Z,98554.53
2022-11-18T11:23:54.912Z,98551.66
2022-11-18T11:30:33.536Z,98561.44
2022-11-18T11:33:23.109Z,98566.94
2022-11-18T11:36:02.419Z,98563.88
2022-11-18T11:39:04.290Z,98570.59
2022-11-18T11:42:23.337Z,98572.22
2022-11-18T11:45:15.016Z,98575.69
2022-11-18T11:48:18.293Z,98573.66
2022-11-18T11:51:03.906Z,98578.13
2022-11-18T11:54:21.429Z,98575.28
2022-11-18T11:56:55.886Z,98582.22
2022-11-18T11:59:32.409Z,98582.22
2022-11-18T12:02:14.118Z,98578.31
2022-11-18T12:04:53.033Z,98585.06
2022-11-18T12:07:45.568Z,98581.38
2022-11-18T12:11:06.182Z,98572.34
2022-11-18T12:14:26.530Z,98582.56
2022-11-18T12:17:19.624Z,98585.03
2022-11-18T12:19:46.961Z,98581.09
2022-11-18T12:22:14.734Z,98575.34
2022-11-18T12:24:43.363Z,98580.25
2022-11-18T12:27:34.828Z,98590.25
2022-11-18T12:30:04.362Z,98575.91
2022-11-18T12:32:46.685Z,98575.47
2022-11-18T12:35:37.317Z,98585.69
2022-11-18T12:38:04.913Z,98585.69
2022-11-18T12:40:52.658Z,98584.88
2022-11-18T12:43:45.045Z,98591.03
2022-11-18T12:46:45.691Z,98585.69
2022-11-18T12:49:22.563Z,98583.63
2022-11-18T12:51:52.771Z,98589.53
2022-11-18T12:54:46.637Z,98585.03
2022-11-18T12:57:17.906Z,98586.88
2022-11-18T12:59:46.007Z,98584.84
2022-11-18T13:02:28.365Z,98588.31
2022-11-18T13:05:22.352Z,98590.97
2022-11-18T13:08:15.436Z,98588.31
2022-11-18T13:11:14.407Z,98595.25
2022-11-18T13:13:42.900Z,98592.38
2022-11-18T13:16:44.343Z,98594.81
2022-11-18T13:19:23.108Z,98597.47
2022-11-18T13:22:17.786Z,98603.03
2022-11-18T13:24:52.199Z,98597.94
2022-11-18T13:27:31.988Z,98597.13
2022-11-18T13:30:12.768Z,98601.63
2022-11-18T13:32:45.547Z,98600.59
2022-11-18T13:35:20.521Z,98603.47
2022-11-18T13:38:02.539Z,98603.69
2022-11-18T13:41:09.082Z,98606.56
2022-11-18T13:43:36.402Z,98597.97
2022-11-18T13:46:22.478Z,98613.97
2022-11-18T13:48:58.733Z,98603.72
2022-11-18T13:51:26.448Z,98610.31
2022-11-18T13:53:53.582Z,98615.63
2022-11-18T13:56:31.636Z,98609.50
2022-11-18T13:59:18.045Z,98609.50
2022-11-18T14:01:47.205Z,98616.09
2022-11-18T14:04:23.986Z,98615.25
2022-11-18T14:06:51.096Z,98620.78
2022-11-18T14:09:30.379Z,98621.81
2022-11-18T14:12:32.776Z,98621.00
2022-11-18T14:15:30.497Z,98611.63
2022-11-18T14:18:00.218Z,98617.94
2022-11-18T14:20:30.702Z,98611.16
2022-11-18T14:23:01.153Z,98613.19
2022-11-18T14:25:36.512Z,98612.13
2022-11-18T14:28:18.401Z,98613.91
2022-11-18T14:31:12.684Z,98618.38
2022-11-18T14:33:39.742Z,98615.03
2022-11-18T14:36:24.949Z,98624.03
2022-11-18T14:41:48.320Z,98623.75
2022-11-18T14:44:16.488Z,98625.19
2022-11-18T14:46:53.294Z,98619.41
2022-11-18T14:49:24.015Z,98630.44
2022-11-18T14:51:52.877Z,98636.16
2022-11-18T14:54:27.231Z,98638.16
2022-11-18T14:57:00.183Z,98643.09
2022-11-18T14:59:27.253Z,98636.72
2022-11-18T15:01:54.755Z,98635.09
2022-11-18T15:04:22.267Z,98640.59
2022-11-18T15:06:49.479Z,98652.53
2022-11-18T15:09:16.605Z,98654.81
2022-11-18T15:11:44.611Z,98652.19
2022-11-18T15:14:11.639Z,98658.38
2022-11-18T15:16:38.594Z,98659.06
2022-11-18T15:19:06.384Z,98659.69
2022-11-18T15:21:33.856Z,98657.91
2022-11-18T15:24:03.010Z,98661.00
2022-11-18T15:26:37.179Z,98660.38
2022-11-18T15:29:04.751Z,98664.53
2022-11-18T15:31:31.712Z,98674.59
2022-11-18T15:34:03.461Z,98672.13
2022-11-18T15:36:33.480Z,98677.91
2022-11-18T15:39:01.644Z,98678.53
2022-11-18T15:41:31.091Z,98681.63
2022-11-18T15:44:00.615Z,98691.06
2022-11-18T15:46:29.961Z,98690.69
2022-11-18T15:49:00.983Z,98691.09
2022-11-18T15:51:30.175Z,98697.88
2022-11-18T15:53:58.295Z,98696.47
2022-11-18T15:56:30.158Z,98694.25
2022-11-18T15:58:59.508Z,98696.28
2022-11-18T16:01:29.858Z,98706.56
2022-11-18T16:03:57.161Z,98703.47
2022-11-18T16:06:25.132Z,98710.06
2022-11-18T16:08:58.871Z,98702.69
2022-11-18T16:11:47.589Z,98706.59
2022-11-18T16:14:18.133Z,98713.59
2022-11-18T16:16:47.740Z,98715.66
2022-11-18T16:19:18.748Z,98713.38
2022-11-18T16:21:51.508Z,98714.63
2022-11-18T16:24:25.481Z,98714.03
2022-11-18T16:26:52.903Z,98712.38
2022-11-18T16:29:21.130Z,98712.59
2022-11-18T16:31:54.144Z,98720.78
2022-11-18T16:34:25.456Z,98709.34
2022-11-18T16:36:59.636Z,98707.72
2022-11-18T16:39:28.307Z,98710.56
2022-11-18T16:42:03.757Z,98724.06
2022-11-18T16:44:34.782Z,98724.06
2022-11-18T16:47:01.937Z,98725.91
2022-11-18T16:49:29.076Z,98723.47
2022-11-18T16:51:57.079Z,98726.13
2022-11-18T16:54:30.163Z,98730.63
2022-11-18T16:56:59.160Z,98727.16
2022-11-18T16:59:30.953Z,98726.53
2022-11-18T17:02:00.071Z,98737.59
2022-11-18T17:04:29.146Z,98738.63
2022-11-18T17:06:59.576Z,98741.31
2022-11-18T17:09:27.073Z,98749.50
2022-11-18T17:11:55.645Z,98749.50
2022-11-18T17:14:23.404Z,98755.81
2022-11-18T17:16:51.613Z,98751.53
2022-11-18T17:19:22.224Z,98748.06
2022-11-18T17:21:51.035Z,98749.06
2022-11-18T17:24:21.684Z,98752.78
2022-11-18T17:26:49.512Z,98750.94
2022-11-18T17:29:16.904Z,98754.81
2022-11-18T17:31:48.014Z,98754.00
2022-11-18T17:34:21.059Z,98753.16
2022-11-18T17:36:48.506Z,98760.16
2022-11-18T17:39:17.393Z,98758.47
2022-11-18T17:42:04.131Z,98765.66
2022-11-18T17:44:33.731Z,98762.19
2022-11-18T17:47:02.742Z,98768.31
2022-11-18T17:49:29.824Z,98765.66
2022-11-18T17:51:58.933Z,98764.84
2022-11-18T17:54:32.185Z,98765.88
2022-11-18T17:59:48.149Z,98775.91
2022-11-18T18:05:13.633Z,98775.31
2022-11-18T18:07:44.029Z,98777.97
2022-11-18T18:10:12.738Z,98787.94
2022-11-18T18:13:07.988Z,98787.13
2022-11-18T18:15:36.591Z,98794.28
2022-11-18T18:18:09.601Z,98788.34
2022-11-18T18:20:42.145Z,98792.03
2022-11-18T18:23:15.555Z,98802.06
2022-11-18T18:25:44.647Z,98796.94
2022-11-18T18:28:15.142Z,98799.81
2022-11-18T18:30:47.922Z,98792.22
2022-11-18T18:33:23.934Z,98792.44
2022-11-18T18:35:59.223Z,98795.31
2022-11-18T18:38:28.341Z,98807.19
2022-11-18T18:41:06.422Z,98807.38
2022-11-18T18:43:35.764Z,98806.75
2022-11-18T18:46:34.960Z,98809.63
2022-11-18T18:49:19.211Z,98804.69
2022-11-18T18:51:55.853Z,98811.88
2022-11-18T18:54:27.110Z,98808.38
2022-11-18T18:56:55.473Z,98817.38
2022-11-18T18:59:22.828Z,98818.19
2022-11-18T19:01:49.978Z,98818.41
2022-11-18T19:04:17.606Z,98817.59
2022-11-18T19:06:53.647Z,98818.63
2022-11-18T19:09:35.443Z,98815.16
2022-11-18T19:12:32.094Z,98813.69
2022-11-18T19:15:06.932Z,98816.56
2022-11-18T19:17:41.555Z,98813.09
2022-11-18T19:20:32.676Z,98820.25
2022-11-18T19:23:10.289Z,98817.81
2022-11-18T19:25:37.992Z,98819.66
2022-11-18T19:28:05.052Z,98832.09
2022-11-18T19:30:32.501Z,98834.75
2022-11-18T19:32:59.537Z,98829.63
2022-11-18T19:37:58.376Z,98834.13
2022-11-18T19:40:28.459Z,98839.44
2022-11-18T19:42:55.831Z,98831.69
2022-11-18T19:45:22.994Z,98836.19
2022-11-18T19:47:49.947Z,98838.84
2022-11-18T19:50:17.256Z,98844.38
2022-11-18T19:52:48.323Z,98848.66
2022-11-18T19:55:15.592Z,98847.84
2022-11-18T19:57:42.596Z,98848.88
2022-11-18T20:00:10.562Z,98847.19
2022-11-18T20:02:38.406Z,98848.88
2022-11-18T20:05:24.385Z,98850.88
2022-11-18T20:07:55.935Z,98850.06
2022-11-18T20:10:23.009Z,98850.88
2022-11-18T20:12:50.335Z,98854.56
2022-11-18T20:15:17.397Z,98851.91
2022-11-18T20:17:44.465Z,98852.94
2022-11-18T20:20:11.627Z,98847.63
2022-11-18T20:22:38.626Z,98857.63
2022-11-18T20:25:07.870Z,98857.81
2022-11-18T20:27:34.830Z,98857.00
2022-11-18T20:30:02.518Z,98862.72
2022-11-18T20:32:29.602Z,98866.41
2022-11-18T20:34:56.761Z,98862.13
2022-11-18T20:37:27.922Z,98871.28
2022-11-18T20:39:55.348Z,98860.88
2022-11-18T20:42:40.992Z,98865.16
2022-11-18T20:45:08.643Z,98863.53
2022-11-18T20:47:35.598Z,98861.69
2022-11-18T20:50:02.644Z,98867.22
2022-11-18T20:52:29.584Z,98869.88
2022-11-18T20:54:59.180Z,98874.16
2022-11-18T20:57:29.727Z,98868.84
2022-11-18T20:59:56.694Z,98872.53
2022-11-18T21:02:23.659Z,98864.75
2022-11-18T21:04:50.677Z,98867.22
2022-11-18T21:07:17.829Z,98877.03
2022-11-18T21:09:45.187Z,98875.19
2022-11-18T21:12:12.281Z,98874.34
2022-11-18T21:14:39.271Z,98869.88
2022-11-18T21:17:06.415Z,98871.69
2022-11-18T21:19:33.810Z,98868.84
2022-11-18T21:22:00.806Z,98877.84
2022-11-18T21:24:31.497Z,98871.50
2022-11-18T21:27:00.486Z,98871.50
2022-11-18T21:29:30.371Z,98864.34
2022-11-18T21:32:01.305Z,98862.72
2022-11-18T21:34:29.036Z,98852.91
2022-11-18T21:36:56.049Z,98862.72
2022-11-18T21:39:24.548Z,98857.41
2022-11-18T21:41:55.710Z,98861.91
2022-11-18T21:44:24.487Z,98863.53
2022-11-18T21:46:51.805Z,98865.56
2022-11-18T21:49:19.248Z,98865.56
2022-11-18T21:51:46.758Z,98871.91
2022-11-18T21:54:15.868Z,98870.25
2022-11-18T21:56:43.275Z,98879.25
2022-11-18T21:59:10.371Z,98883.53
2022-11-18T22:01:37.344Z,98881.91
2022-11-18T22:04:05.674Z,98887.41
2022-11-18T22:06:34.437Z,98889.25
2022-11-18T22:09:03.991Z,98886.00
2022-11-18T22:11:30.981Z,98897.59
2022-11-18T22:13:58.235Z,98893.31
2022-11-18T22:16:26.714Z,98893.31
2022-11-18T22:19:01.363Z,98889.84
2022-11-18T22:21:32.126Z,98892.50
2022-11-18T22:24:00.984Z,98895.34
2022-11-18T22:26:28.909Z,98891.06
2022-11-18T22:28:57.824Z,98894.53
2022-11-18T22:31:27.405Z,98899.03
2022-11-18T22:33:55.825Z,98903.34
2022-11-18T22:36:25.719Z,98899.03
2022-11-18T22:38:54.436Z,98898.22
2022-11-18T22:41:43.895Z,98890.47
2022-11-18T22:44:12.476Z,98897.41
2022-11-18T22:46:41.326Z,98898.22
2022-11-18T22:49:09.946Z,98896.38
2022-11-18T22:51:38.532Z,98899.03
2022-11-18T22:56:54.616Z,98895.56
2022-11-18T22:59:21.935Z,98901.69
2022-11-18T23:01:51.708Z,98899.03
2022-11-18T23:04:19.050Z,98895.34
2022-11-18T23:06:46.063Z,98900.47
2022-11-18T23:09:13.308Z,98897.81
2022-11-18T23:12:01.217Z,98898.03
2022-11-18T23:14:30.569Z,98902.31
2022-11-18T23:16:57.757Z,98902.31
2022-11-18T23:19:24.686Z,98906.81
2022-11-18T23:21:51.696Z,98904.16
2022-11-18T23:24:19.567Z,98903.34
2022-11-18T23:26:47.890Z,98906.81
2022-11-18T23:29:15.516Z,98905.16
2022-11-18T23:31:44.490Z,98909.66
2022-11-18T23:34:14.043Z,98904.34
2022-11-18T23:36:41.821Z,98909.47
2022-11-18T23:39:09.387Z,98906.00
2022-11-18T23:41:36.418Z,98909.47
2022-11-18T23:44:03.963Z,98906.00
2022-11-18T23:46:31.668Z,98899.03
2022-11-18T23:48:58.905Z,98901.50
2022-11-18T23:51:26.180Z,98904.16
2022-11-18T23:53:56.201Z,98900.69
2022-11-18T23:56:26.446Z,98902.31
2022-11-18T23:58:55.694Z,98903.34
